Time;durP1;ratioP1;P1;durP2;ratioP2;P2;SDS_P1;SDS_P2;PMS_P1;PMS_P2;Temp;Humidity;BMP_temperature;BMP_pressure;BME280_temperature;BME280_humidity;BME280_pressure;Samples;Min_cycle;Max_cycle;Signal;HPM_P1;HPM_P2
2022/01/01 00:02:23;;;;;;;168.40;75.30;;;;;;;22.46;43.01;102368.34;5131985;27;20102;-70
2022/01/01 00:04:49;;;;;;;148.87;64.80;;;;;;;21.48;46.27;102373.31;5131062;27;20452;-70
2022/01/01 00:07:16;;;;;;;162.13;73.50;;;;;;;21.47;45.94;102363.59;5104939;28;20024;-70
2022/01/01 00:09:43;;;;;;;147.37;67.53;;;;;;;21.50;45.51;102358.19;5093366;28;20027;-70
2022/01/01 00:12:10;;;;;;;162.63;75.00;;;;;;;22.55;43.66;102347.63;5091989;28;20625;-70
2022/01/01 00:14:36;;;;;;;154.40;69.23;;;;;;;21.84;44.94;102349.13;5113871;27;20027;-70
2022/01/01 00:17:02;;;;;;;147.47;67.37;;;;;;;22.47;42.56;102340.75;5126211;27;20031;-70
2022/01/01 00:19:28;;;;;;;127.23;58.43;;;;;;;21.89;44.53;102342.78;5092083;28;20074;-70
2022/01/01 00:21:53;;;;;;;111.77;47.43;;;;;;;20.53;47.39;102336.28;5111198;28;20158;-70
2022/01/01 00:24:19;;;;;;;122.67;55.87;;;;;;;21.75;44.96;102344.13;5092733;28;20023;-70
2022/01/01 00:26:44;;;;;;;120.37;47.10;;;;;;;21.62;45.52;102340.09;5092558;28;20395;-70
2022/01/01 00:29:09;;;;;;;126.80;50.53;;;;;;;22.41;43.64;102330.31;5112845;27;20035;-70
2022/01/01 00:31:35;;;;;;;109.43;48.57;;;;;;;21.77;44.68;102334.28;5114095;27;20036;-70
2022/01/01 00:34:00;;;;;;;115.17;50.77;;;;;;;22.38;43.15;102325.13;5092549;28;20033;-70
2022/01/01 00:36:28;;;;;;;137.83;61.20;;;;;;;22.06;44.38;102329.75;5103703;28;20080;-70
2022/01/01 00:38:54;;;;;;;170.93;74.73;;;;;;;22.55;43.48;102336.97;5112361;28;20042;-70
2022/01/01 00:41:20;;;;;;;151.60;61.13;;;;;;;23.08;41.22;102338.50;5113147;28;20391;-70
2022/01/01 00:43:45;;;;;;;130.47;54.57;;;;;;;23.14;41.38;102336.50;5093423;28;20051;-70
2022/01/01 00:46:11;;;;;;;145.23;57.30;;;;;;;22.75;41.94;102337.09;5100998;28;20077;-70
2022/01/01 00:48:36;;;;;;;141.90;54.67;;;;;;;22.83;41.51;102337.66;5113171;28;20061;-70
2022/01/01 00:51:02;;;;;;;118.00;45.47;;;;;;;22.79;43.07;102336.03;5112638;28;20066;-70
2022/01/01 00:53:27;;;;;;;112.63;40.87;;;;;;;22.47;43.46;102332.75;5130493;28;20037;-70
2022/01/01 00:55:53;;;;;;;84.97;34.57;;;;;;;21.11;46.09;102339.88;5131605;28;20031;-70
2022/01/01 00:58:18;;;;;;;102.30;36.73;;;;;;;21.76;45.03;102332.56;5094250;28;20023;-70
2022/01/01 01:00:44;;;;;;;90.80;33.80;;;;;;;21.04;48.14;102333.03;5112695;28;20034;-70
2022/01/01 01:03:14;;;;;;;90.60;34.37;;;;;;;21.54;46.20;102326.19;5131869;27;20440;-70
2022/01/01 01:05:41;;;;;;;86.83;33.57;;;;;;;21.40;46.39;102345.22;5135331;27;20027;-70
2022/01/01 01:08:08;;;;;;;86.77;33.23;;;;;;;21.38;46.05;102347.94;5100537;28;20471;-70
2022/01/01 01:10:34;;;;;;;80.10;31.93;;;;;;;21.48;46.55;102354.69;5096530;28;20246;-70
2022/01/01 01:13:00;;;;;;;85.23;31.20;;;;;;;20.47;49.04;102364.72;5114518;27;20031;-70
2022/01/01 01:15:26;;;;;;;92.73;30.57;;;;;;;21.33;47.28;102365.81;5095641;28;20035;-70
2022/01/01 01:17:52;;;;;;;76.07;26.73;;;;;;;20.89;48.28;102357.41;5107952;27;20035;-70
2022/01/01 01:20:19;;;;;;;72.27;25.20;;;;;;;21.59;47.44;102366.81;5114750;27;20031;-70
2022/01/01 01:22:46;;;;;;;60.67;21.83;;;;;;;20.34;49.99;102365.97;5114846;27;20031;-70
2022/01/01 01:25:11;;;;;;;60.20;22.97;;;;;;;21.49;47.55;102371.53;5116003;27;20046;-70
2022/01/01 01:27:37;;;;;;;60.70;21.70;;;;;;;21.33;46.63;102379.13;5106035;28;20464;-70
2022/01/01 01:30:09;;;;;;;51.47;18.47;;;;;;;21.93;47.35;102379.88;5095253;28;20475;-69
2022/01/01 01:32:35;;;;;;;48.92;18.38;;;;;;;22.37;44.79;102373.97;5096066;28;20028;-70
2022/01/01 01:35:01;;;;;;;47.90;16.53;;;;;;;24.09;41.36;102373.56;5095354;28;20035;-68
2022/01/01 01:37:28;;;;;;;47.77;15.97;;;;;;;23.06;43.09;102370.56;5132350;27;20038;-68
2022/01/01 01:39:54;;;;;;;42.70;16.03;;;;;;;23.87;41.80;102369.09;5116055;27;20513;-68
2022/01/01 01:42:20;;;;;;;42.28;14.38;;;;;;;22.38;45.20;102373.06;5133387;27;20023;-68
2022/01/01 01:44:48;;;;;;;39.93;12.53;;;;;;;23.27;43.41;102365.34;5134974;27;20032;-68
2022/01/01 01:47:16;;;;;;;47.27;14.30;;;;;;;23.36;42.66;102357.84;5115584;27;20114;-68
2022/01/01 01:49:44;;;;;;;38.67;11.82;;;;;;;23.17;43.88;102363.03;5132713;27;20029;-68
2022/01/01 01:52:11;;;;;;;31.77;11.47;;;;;;;23.10;43.52;102363.31;5114267;27;20444;-68
2022/01/01 01:54:36;;;;;;;39.67;12.13;;;;;;;23.23;43.61;102355.72;5115708;27;20026;-68
2022/01/01 01:57:05;;;;;;;41.95;12.20;;;;;;;23.84;41.59;102358.56;5114779;27;20502;-68
2022/01/01 01:59:30;;;;;;;31.50;11.10;;;;;;;23.57;41.78;102365.91;5115670;27;20019;-68
2022/01/01 02:01:56;;;;;;;31.50;9.90;;;;;;;24.15;40.92;102370.66;5134241;27;20504;-68
2022/01/01 02:04:22;;;;;;;34.57;10.23;;;;;;;23.29;42.63;102371.50;5108406;27;20073;-68
2022/01/01 02:06:48;;;;;;;27.60;8.97;;;;;;;23.43;42.40;102374.47;5114909;27;20058;-68
2022/01/01 02:09:13;;;;;;;36.85;10.07;;;;;;;23.77;41.06;102365.09;5115414;27;20537;-71
2022/01/01 02:11:39;;;;;;;36.03;10.40;;;;;;;23.93;41.92;102359.13;5112885;27;20068;-68
2022/01/01 02:14:14;;;;;;;34.95;10.27;;;;;;;23.29;42.30;102358.16;5099904;27;20019;-68
2022/01/01 02:17:08;;;;;;;43.58;10.73;;;;;;;24.38;40.14;102350.91;5131315;27;20034;-68
2022/01/01 02:19:28;;;;;;;32.38;10.38;;;;;;;23.95;41.13;102349.28;5112851;28;20047;-69
2022/01/01 02:22:01;;;;;;;27.05;10.23;;;;;;;23.99;41.71;102345.53;5110771;28;20031;-69
2022/01/01 02:24:26;;;;;;;32.83;11.27;;;;;;;24.31;39.77;102348.59;5112543;28;20035;-69
2022/01/01 02:26:52;;;;;;;33.85;12.52;;;;;;;24.42;40.11;102332.09;5133417;27;20030;-69
2022/01/01 02:29:19;;;;;;;33.97;11.75;;;;;;;24.53;40.11;102336.00;5114984;27;20466;-69
2022/01/01 02:31:44;;;;;;;39.20;13.10;;;;;;;24.29;40.43;102332.66;5109947;27;20070;-69
2022/01/01 02:34:10;;;;;;;39.20;16.07;;;;;;;24.47;40.60;102340.75;5113185;27;20058;-69
2022/01/01 02:36:42;;;;;;;40.17;14.30;;;;;;;25.30;38.08;102339.56;5113573;27;20023;-69
2022/01/01 02:39:11;;;;;;;38.50;14.38;;;;;;;26.24;36.12;102339.38;5120189;27;20088;-69
2022/01/01 02:41:36;;;;;;;45.85;15.05;;;;;;;24.53;39.67;102352.03;5109498;27;20026;-69
2022/01/01 02:44:01;;;;;;;41.22;15.88;;;;;;;24.57;39.78;102352.78;5133335;27;20029;-69
2022/01/01 02:46:27;;;;;;;47.28;16.70;;;;;;;24.18;40.17;102362.50;5114009;27;20027;-69
2022/01/01 02:48:52;;;;;;;43.28;16.33;;;;;;;25.06;38.90;102363.03;5114431;27;20019;-69
2022/01/01 02:51:17;;;;;;;40.58;15.55;;;;;;;24.72;38.73;102354.78;5112465;27;20126;-69
2022/01/01 02:53:43;;;;;;;45.75;17.02;;;;;;;24.59;39.94;102360.72;5113754;27;20184;-69
2022/01/01 02:56:09;;;;;;;37.70;15.30;;;;;;;24.93;38.49;102354.72;5114122;27;20062;-69
2022/01/01 02:58:34;;;;;;;46.03;16.80;;;;;;;24.87;38.95;102355.88;5133143;27;20387;-69
2022/01/01 03:00:59;;;;;;;52.17;16.58;;;;;;;24.98;38.56;102351.84;5113645;27;20019;-69
2022/01/01 03:03:25;;;;;;;40.30;17.55;;;;;;;24.80;39.16;102348.19;5133284;27;20025;-69
2022/01/01 03:05:50;;;;;;;45.75;17.42;;;;;;;25.36;37.65;102354.50;5113139;27;20027;-69
2022/01/01 03:08:15;;;;;;;43.00;16.35;;;;;;;25.30;38.10;102349.44;5095755;28;20039;-69
2022/01/01 03:10:41;;;;;;;33.95;15.15;;;;;;;23.47;40.97;102345.88;5099166;27;20478;-69
2022/01/01 03:13:06;;;;;;;37.50;15.45;;;;;;;23.91;41.32;102355.69;5114130;27;20019;-69
2022/01/01 03:15:31;;;;;;;44.25;14.75;;;;;;;23.62;41.30;102352.41;5131367;27;20026;-69
2022/01/01 03:17:57;;;;;;;40.08;14.13;;;;;;;23.97;40.57;102344.72;5113018;27;20031;-69
2022/01/01 03:20:22;;;;;;;46.15;16.45;;;;;;;25.48;37.04;102337.84;5113186;27;20035;-69
2022/01/01 03:22:47;;;;;;;43.70;15.52;;;;;;;24.52;38.94;102339.63;5114166;27;20146;-69
2022/01/01 03:25:13;;;;;;;34.45;14.02;;;;;;;23.85;40.90;102349.63;5113772;27;20037;-69
2022/01/01 03:27:38;;;;;;;38.97;14.18;;;;;;;24.72;38.74;102332.53;5103434;28;20027;-69
2022/01/01 03:30:04;;;;;;;31.15;13.05;;;;;;;24.62;38.63;102339.22;5093620;27;20084;-69
2022/01/01 03:32:29;;;;;;;36.75;12.98;;;;;;;24.89;38.96;102343.31;5112999;27;20084;-69
2022/01/01 03:34:56;;;;;;;33.78;13.35;;;;;;;24.11;40.19;102330.78;5131852;27;20389;-69
2022/01/01 03:37:21;;;;;;;38.55;13.45;;;;;;;23.98;40.96;102317.94;5107204;28;20480;-69
2022/01/01 03:39:47;;;;;;;31.35;12.38;;;;;;;24.82;38.20;102324.94;5093306;28;20118;-69
2022/01/01 03:42:12;;;;;;;32.22;12.10;;;;;;;23.44;41.37;102322.84;5109221;27;20113;-69
2022/01/01 03:44:37;;;;;;;29.10;13.00;;;;;;;24.04;40.08;102335.50;5114140;27;20395;-69
2022/01/01 03:47:09;;;;;;;28.02;11.55;;;;;;;23.22;41.73;102325.53;5097673;28;20046;-69
2022/01/01 03:49:36;;;;;;;36.30;13.23;;;;;;;23.95;39.53;102328.78;5092990;28;20030;-69
2022/01/01 03:52:03;;;;;;;31.67;11.95;;;;;;;23.00;41.55;102330.81;5107859;27;20045;-69
2022/01/01 03:54:28;;;;;;;27.20;12.40;;;;;;;24.08;39.42;102325.56;5132399;27;20521;-69
2022/01/01 03:56:53;;;;;;;29.87;12.37;;;;;;;24.28;38.52;102330.91;5107248;28;20115;-69
2022/01/01 03:59:20;;;;;;;28.17;12.43;;;;;;;23.79;39.34;102333.84;5093266;28;20028;-69
2022/01/01 04:01:46;;;;;;;36.17;11.27;;;;;;;23.65;40.22;102330.91;5109408;27;20480;-69
2022/01/01 04:04:11;;;;;;;27.27;11.80;;;;;;;23.06;41.35;102333.22;5112170;27;20031;-69
2022/01/01 04:06:37;;;;;;;31.37;11.90;;;;;;;23.34;41.80;102326.81;5131992;27;20123;-69
2022/01/01 04:09:03;;;;;;;31.08;11.23;;;;;;;23.17;41.42;102330.16;5113379;27;20023;-69
2022/01/01 04:11:28;;;;;;;27.30;11.93;;;;;;;22.99;41.08;102331.72;5112277;27;20122;-69
2022/01/01 04:13:54;;;;;;;30.00;11.97;;;;;;;22.49;43.21;102344.25;5093108;28;20114;-69
2022/01/01 04:16:20;;;;;;;31.63;10.07;;;;;;;22.65;42.23;102341.00;5097085;28;20035;-69
2022/01/01 04:18:46;;;;;;;29.90;12.53;;;;;;;23.20;41.19;102336.25;5092048;28;20035;-69
2022/01/01 04:21:12;;;;;;;25.20;10.97;;;;;;;23.26;42.00;102334.25;5100171;27;20023;-69
2022/01/01 04:23:39;;;;;;;27.47;11.27;;;;;;;22.50;44.22;102339.78;5094604;28;20092;-69
2022/01/01 04:26:07;;;;;;;29.97;10.37;;;;;;;21.96;44.95;102349.63;5104148;28;20031;-69
2022/01/01 04:28:32;;;;;;;31.13;10.98;;;;;;;22.20;44.75;102331.91;5113103;28;20493;-69
2022/01/01 04:30:57;;;;;;;24.20;10.97;;;;;;;22.73;42.69;102336.25;5111859;28;20027;-69
2022/01/01 04:33:23;;;;;;;28.20;11.13;;;;;;;23.43;41.88;102336.25;5100081;28;20031;-69
2022/01/01 04:35:48;;;;;;;26.57;9.67;;;;;;;23.58;40.41;102345.44;5117843;28;20027;-69
2022/01/01 04:38:55;;;;;;;18.23;9.60;;;;;;;24.04;40.13;102348.84;5129668;27;20046;-69
2022/01/01 04:41:07;;;;;;;27.52;9.20;;;;;;;24.09;39.64;102352.19;5122523;28;20039;-69
2022/01/01 04:43:33;;;;;;;29.40;10.25;;;;;;;24.22;39.26;102347.19;5117451;28;20080;-69
2022/01/01 04:45:59;;;;;;;19.63;9.37;;;;;;;24.32;39.04;102355.69;5105085;28;20482;-69
2022/01/01 04:48:24;;;;;;;21.02;8.10;;;;;;;23.94;40.28;102361.75;5113091;28;20474;-69
2022/01/01 04:50:50;;;;;;;25.40;8.55;;;;;;;24.58;39.20;102354.50;5112157;28;20023;-69
2022/01/01 04:53:17;;;;;;;19.25;7.70;;;;;;;24.24;39.30;102355.16;5112031;28;20402;-69
2022/01/01 04:55:44;;;;;;;26.63;9.30;;;;;;;23.79;40.56;102359.69;5111813;28;20023;-69
2022/01/01 04:58:09;;;;;;;20.13;7.55;;;;;;;23.15;41.75;102358.69;5112314;28;20398;-69
2022/01/01 05:00:35;;;;;;;18.45;7.75;;;;;;;24.94;38.28;102355.59;5111734;28;20019;-69
2022/01/01 05:03:00;;;;;;;27.52;7.80;;;;;;;23.66;40.00;102359.34;5131171;28;20402;-69
2022/01/01 05:05:25;;;;;;;25.25;8.05;;;;;;;23.40;40.95;102350.59;5112243;28;20046;-69
2022/01/01 05:07:51;;;;;;;17.80;7.57;;;;;;;24.61;38.84;102354.41;5112011;28;20035;-69
2022/01/01 05:10:17;;;;;;;24.95;8.63;;;;;;;24.39;38.68;102351.81;5112624;28;20023;-69
2022/01/01 05:12:42;;;;;;;23.88;8.10;;;;;;;24.82;38.03;102352.53;5104679;28;20031;-68
2022/01/01 05:15:08;;;;;;;15.77;7.53;;;;;;;22.48;43.09;102347.81;5126406;28;20022;-68
2022/01/01 05:17:34;;;;;;;19.58;7.03;;;;;;;24.69;38.18;102335.34;5112628;28;20031;-68
2022/01/01 05:19:59;;;;;;;16.70;6.72;;;;;;;24.95;37.46;102347.50;5111817;28;20398;-68
2022/01/01 05:22:24;;;;;;;18.20;6.70;;;;;;;24.81;38.40;102341.91;5111061;28;20019;-68
2022/01/01 05:24:50;;;;;;;17.95;7.43;;;;;;;24.29;38.70;102348.66;5091914;28;20034;-68
2022/01/01 05:27:15;;;;;;;14.95;7.60;;;;;;;24.68;37.65;102344.31;5123030;28;20027;-68
2022/01/01 05:29:40;;;;;;;18.17;6.60;;;;;;;24.83;37.54;102334.72;5130823;28;20035;-68
2022/01/01 05:32:06;;;;;;;15.82;7.85;;;;;;;24.61;38.53;102332.13;5111919;28;20027;-69
2022/01/01 05:34:32;;;;;;;22.77;7.95;;;;;;;24.06;39.36;102344.34;5095034;28;20028;-68
2022/01/01 05:36:57;;;;;;;19.23;8.30;;;;;;;23.62;39.78;102336.38;5105954;28;20474;-68
2022/01/01 05:39:22;;;;;;;22.03;7.20;;;;;;;23.17;40.45;102331.03;5112593;28;20031;-68
2022/01/01 05:41:52;;;;;;;16.48;7.30;;;;;;;23.53;39.51;102322.50;5111675;28;20477;-68
2022/01/01 05:44:18;;;;;;;17.83;6.20;;;;;;;24.00;38.81;102312.53;5111339;28;20023;-68
2022/01/01 05:46:43;;;;;;;12.55;5.05;;;;;;;23.71;39.23;102314.63;5110239;28;20027;-68
2022/01/01 05:49:09;;;;;;;16.13;5.70;;;;;;;24.36;38.94;102306.53;5109616;27;20075;-68
2022/01/01 05:51:34;;;;;;;21.47;6.60;;;;;;;24.28;38.61;102303.31;5112014;27;20035;-68
2022/01/01 05:53:59;;;;;;;18.15;6.50;;;;;;;23.62;39.84;102315.88;5116102;27;20023;-69
2022/01/01 05:56:25;;;;;;;13.97;5.30;;;;;;;23.32;40.87;102318.03;5114075;27;20030;-68
2022/01/01 05:58:50;;;;;;;14.35;5.53;;;;;;;24.82;37.71;102320.44;5114780;27;20110;-68
2022/01/01 06:01:15;;;;;;;15.02;6.10;;;;;;;24.44;38.06;102312.38;5115461;27;20023;-69
2022/01/01 06:03:41;;;;;;;15.52;5.35;;;;;;;23.28;39.95;102321.75;5134099;27;20019;-69
2022/01/01 06:06:06;;;;;;;12.88;5.00;;;;;;;23.91;39.03;102320.97;5115024;27;20019;-69
2022/01/01 06:08:31;;;;;;;16.38;5.28;;;;;;;24.03;38.83;102325.78;5116229;27;20031;-68
2022/01/01 06:10:57;;;;;;;14.77;5.22;;;;;;;23.78;40.12;102334.81;5110604;28;20008;-68
2022/01/01 06:13:23;;;;;;;16.27;5.22;;;;;;;24.25;38.20;102322.13;5111646;27;20111;-68
2022/01/01 06:15:48;;;;;;;14.52;5.32;;;;;;;21.82;43.72;102336.81;5110716;27;20486;-68
2022/01/01 06:18:14;;;;;;;10.17;4.60;;;;;;;22.97;41.47;102330.91;5114496;27;20051;-68
2022/01/01 06:20:39;;;;;;;11.30;5.57;;;;;;;22.19;42.93;102336.38;5115828;27;20023;-68
2022/01/01 06:23:06;;;;;;;15.23;5.22;;;;;;;23.06;41.27;102333.22;5114382;27;20030;-68
2022/01/01 06:25:33;;;;;;;16.60;5.30;;;;;;;24.06;38.74;102339.00;5113978;27;20118;-68
2022/01/01 06:27:58;;;;;;;12.98;5.30;;;;;;;22.85;41.02;102340.25;5109777;27;20140;-68
2022/01/01 06:30:23;;;;;;;10.48;4.40;;;;;;;22.74;41.56;102338.00;5132844;27;20557;-68
2022/01/01 06:32:51;;;;;;;14.85;4.72;;;;;;;23.79;39.89;102338.34;5133283;27;20035;-68
2022/01/01 06:35:16;;;;;;;14.57;4.78;;;;;;;23.05;40.88;102342.13;5101947;28;20028;-68
2022/01/01 06:37:41;;;;;;;16.73;4.95;;;;;;;22.64;42.52;102348.13;5130509;27;20023;-68
2022/01/01 06:40:08;;;;;;;13.10;5.30;;;;;;;23.30;40.46;102341.22;5133189;27;20033;-68
2022/01/01 06:42:33;;;;;;;14.65;5.93;;;;;;;22.44;42.40;102350.66;5114566;27;20027;-68
2022/01/01 06:44:58;;;;;;;16.55;5.88;;;;;;;23.39;40.73;102346.19;5103995;28;20483;-68
2022/01/01 06:47:25;;;;;;;11.40;5.03;;;;;;;24.11;39.25;102350.34;5105595;27;20031;-68
2022/01/01 06:49:50;;;;;;;11.95;4.70;;;;;;;23.16;40.34;102337.31;5133564;27;20491;-68
2022/01/01 06:52:15;;;;;;;14.15;5.22;;;;;;;24.18;38.22;102334.91;5113743;27;20019;-68
2022/01/01 06:54:41;;;;;;;10.70;4.65;;;;;;;23.36;40.89;102346.31;5133612;27;20027;-68
2022/01/01 06:57:06;;;;;;;14.70;5.13;;;;;;;23.53;38.97;102335.84;5108292;27;20490;-68
2022/01/01 06:59:31;;;;;;;13.13;5.28;;;;;;;24.01;38.94;102333.81;5113966;27;20016;-68
2022/01/01 07:01:57;;;;;;;13.35;5.05;;;;;;;24.11;39.26;102334.31;5132334;27;20395;-70
2022/01/01 07:04:22;;;;;;;9.02;4.78;;;;;;;23.35;39.64;102339.22;5114431;27;20095;-70
2022/01/01 07:06:48;;;;;;;12.07;5.28;;;;;;;23.98;39.03;102349.13;5112498;27;20067;-70
2022/01/01 07:09:14;;;;;;;16.33;4.90;;;;;;;23.44;40.07;102338.88;5114239;27;20514;-70
2022/01/01 07:11:40;;;;;;;19.48;5.57;;;;;;;23.17;40.66;102347.03;5114491;27;20023;-69
2022/01/01 07:14:06;;;;;;;13.98;5.78;;;;;;;23.27;40.50;102344.00;5111970;27;20506;-70
2022/01/01 07:16:31;;;;;;;12.10;4.70;;;;;;;23.71;39.80;102341.31;5114300;27;20015;-70
2022/01/01 07:18:56;;;;;;;12.68;4.80;;;;;;;22.91;41.50;102341.81;5132653;27;20095;-70
2022/01/01 07:21:22;;;;;;;13.80;5.70;;;;;;;24.02;39.00;102338.25;5108708;28;20172;-70
2022/01/01 07:23:48;;;;;;;17.85;5.82;;;;;;;23.39;40.02;102332.84;5112370;27;20030;-70
2022/01/01 07:26:13;;;;;;;12.27;4.97;;;;;;;23.91;39.15;102337.84;5131733;27;20034;-70
2022/01/01 07:28:38;;;;;;;14.30;5.13;;;;;;;24.82;37.18;102352.53;5115531;27;20433;-69
2022/01/01 07:31:04;;;;;;;14.30;5.90;;;;;;;25.49;35.86;102352.09;5111771;28;20051;-70
2022/01/01 07:33:29;;;;;;;14.23;6.18;;;;;;;23.49;39.52;102357.34;5108329;27;20368;-70
2022/01/01 07:35:55;;;;;;;11.90;5.03;;;;;;;22.86;40.88;102357.97;5110145;27;20031;-70
2022/01/01 07:38:24;;;;;;;12.90;5.43;;;;;;;23.37;40.65;102358.72;5109849;27;20482;-70
2022/01/01 07:40:50;;;;;;;11.57;5.15;;;;;;;24.26;38.52;102359.47;5131769;27;20078;-70
2022/01/01 07:43:17;;;;;;;11.32;5.00;;;;;;;24.46;38.09;102366.63;5112350;27;20023;-70
2022/01/01 07:45:43;;;;;;;12.13;5.13;;;;;;;23.82;39.49;102371.13;5108402;27;20110;-70
2022/01/01 07:48:09;;;;;;;14.93;5.13;;;;;;;24.33;38.21;102362.75;5124840;27;20062;-70
2022/01/01 07:50:35;;;;;;;17.40;5.10;;;;;;;24.58;37.89;102364.31;5132280;27;20127;-70
2022/01/01 07:53:01;;;;;;;17.13;5.60;;;;;;;24.05;39.15;102366.63;5113456;27;20023;-70
2022/01/01 07:55:26;;;;;;;11.63;5.13;;;;;;;23.45;39.48;102366.41;5112836;27;20435;-70
2022/01/01 07:57:52;;;;;;;14.57;5.13;;;;;;;23.78;39.25;102363.28;5108931;27;20027;-70
2022/01/01 08:00:17;;;;;;;13.10;4.32;;;;;;;23.19;41.08;102361.19;5108030;28;20023;-70
2022/01/01 08:02:46;;;;;;;12.25;4.82;;;;;;;23.02;41.05;102358.25;5103450;27;20031;-70
2022/01/01 08:05:13;;;;;;;15.10;5.28;;;;;;;22.06;43.20;102359.03;5113295;27;20039;-70
2022/01/01 08:07:39;;;;;;;10.65;4.93;;;;;;;22.42;43.00;102358.72;5111698;27;20030;-70
2022/01/01 08:10:07;;;;;;;8.48;4.07;;;;;;;22.10;42.98;102357.13;5130871;27;20513;-70
2022/01/01 08:12:33;;;;;;;12.05;5.10;;;;;;;21.50;45.15;102358.19;5122199;27;20027;-70
2022/01/01 08:14:58;;;;;;;10.73;4.57;;;;;;;22.47;41.93;102356.72;5095804;27;20513;-70
2022/01/01 08:17:24;;;;;;;12.40;4.78;;;;;;;22.06;43.43;102364.34;5112140;27;20443;-69
2022/01/01 08:19:51;;;;;;;15.13;5.03;;;;;;;22.38;42.81;102358.84;5113320;27;20043;-69
2022/01/01 08:22:17;;;;;;;11.05;4.38;;;;;;;22.37;42.48;102355.34;5108494;27;20387;-70
2022/01/01 08:24:42;;;;;;;14.07;4.90;;;;;;;22.50;42.74;102367.31;5130893;27;20089;-70
2022/01/01 08:27:08;;;;;;;12.45;4.55;;;;;;;23.46;40.67;102363.66;5120854;27;20039;-70
2022/01/01 08:29:34;;;;;;;13.87;5.93;;;;;;;23.29;40.85;102363.50;5112677;28;20066;-70
2022/01/01 08:31:59;;;;;;;13.82;5.03;;;;;;;22.83;41.35;102358.97;5099976;28;20114;-70
2022/01/01 08:34:25;;;;;;;11.67;5.60;;;;;;;21.87;43.16;102372.09;5092804;28;20027;-70
2022/01/01 08:36:51;;;;;;;10.10;5.55;;;;;;;23.47;40.07;102365.41;5120109;28;20103;-70
2022/01/01 08:39:16;;;;;;;13.15;5.80;;;;;;;21.41;44.41;102369.09;5112782;28;20084;-70
2022/01/01 08:41:44;;;;;;;13.27;6.32;;;;;;;22.10;43.12;102373.97;5112854;28;20029;-70
2022/01/01 08:44:09;;;;;;;12.90;5.63;;;;;;;22.96;41.83;102358.53;5111777;28;20460;-69
2022/01/01 08:46:35;;;;;;;17.85;6.82;;;;;;;22.30;42.25;102351.13;5130512;28;20039;-70
2022/01/01 08:49:02;;;;;;;16.17;6.33;;;;;;;23.38;40.60;102333.75;5109816;28;20393;-70
2022/01/01 08:51:28;;;;;;;15.17;5.73;;;;;;;21.80;43.46;102350.16;5112353;28;20027;-70
2022/01/01 08:53:53;;;;;;;14.77;6.90;;;;;;;22.15;42.92;102345.41;5112340;28;20038;-70
2022/01/01 08:56:19;;;;;;;16.25;7.07;;;;;;;22.82;40.93;102343.91;5112804;28;20011;-70
2022/01/01 08:58:44;;;;;;;15.47;6.60;;;;;;;22.76;41.36;102330.81;5129614;28;20025;-70
2022/01/01 09:01:10;;;;;;;12.93;6.90;;;;;;;21.10;45.27;102340.81;5107417;28;20027;-70
2022/01/01 09:03:37;;;;;;;14.47;6.80;;;;;;;22.12;43.30;102333.97;5111056;28;20019;-70
2022/01/01 09:06:05;;;;;;;15.03;6.57;;;;;;;22.74;41.29;102338.00;5126667;28;20023;-70
2022/01/01 09:08:32;;;;;;;20.40;7.67;;;;;;;21.95;44.06;102342.56;5094229;28;20563;-70
2022/01/01 09:10:58;;;;;;;19.17;6.80;;;;;;;21.00;45.15;102352.63;5130699;28;20398;-70
2022/01/01 09:13:23;;;;;;;19.03;8.07;;;;;;;21.52;44.09;102347.50;5111178;28;20284;-70
2022/01/01 09:15:49;;;;;;;13.87;6.23;;;;;;;20.96;45.42;102346.53;5111942;28;20034;-69
2022/01/01 09:18:15;;;;;;;22.03;7.87;;;;;;;21.52;44.91;102350.16;5125723;28;20114;-69
2022/01/01 09:20:40;;;;;;;16.33;8.13;;;;;;;21.59;44.14;102345.53;5103285;28;20042;-69
2022/01/01 09:23:06;;;;;;;18.73;8.27;;;;;;;22.19;42.93;102330.19;5111478;28;20023;-69
2022/01/01 09:25:31;;;;;;;14.90;7.57;;;;;;;22.98;41.72;102332.66;5133545;27;20042;-69
2022/01/01 09:27:56;;;;;;;23.53;9.30;;;;;;;22.01;43.80;102326.41;5107647;27;20027;-70
2022/01/01 09:30:23;;;;;;;20.43;9.53;;;;;;;21.23;45.55;102324.50;5116297;27;20148;-70
2022/01/01 09:32:48;;;;;;;19.03;9.17;;;;;;;21.99;43.88;102299.81;5113770;27;20109;-71
2022/01/01 09:35:16;;;;;;;21.37;9.17;;;;;;;21.76;43.54;102308.59;5127819;27;20522;-69
2022/01/01 09:37:42;;;;;;;22.93;9.50;;;;;;;22.24;43.09;102292.75;5134941;27;20075;-69
2022/01/01 09:40:08;;;;;;;18.53;9.50;;;;;;;22.58;42.40;102283.53;5113343;27;20026;-69
2022/01/01 09:42:34;;;;;;;18.17;9.98;;;;;;;22.46;42.32;102288.41;5109245;28;20557;-70
2022/01/01 09:44:59;;;;;;;24.10;10.60;;;;;;;20.86;45.62;102291.94;5102394;27;20031;-69
2022/01/01 09:47:25;;;;;;;25.77;12.27;;;;;;;20.78;46.77;102292.16;5108955;28;20028;-70
2022/01/01 09:49:51;;;;;;;24.20;11.60;;;;;;;21.58;44.90;102291.44;5098629;28;20107;-70
2022/01/01 09:52:17;;;;;;;25.00;12.20;;;;;;;22.26;43.30;102282.91;5130978;27;20117;-69
2022/01/01 09:54:43;;;;;;;29.03;13.20;;;;;;;21.60;46.04;102288.75;5112482;27;20074;-69
2022/01/01 09:57:10;;;;;;;31.93;14.50;;;;;;;21.89;45.17;102284.22;5115766;27;20020;-70
2022/01/01 09:59:37;;;;;;;28.97;13.87;;;;;;;21.96;44.17;102280.44;5115925;27;20056;-69
2022/01/01 10:02:06;;;;;;;33.13;14.20;;;;;;;22.48;44.07;102286.53;5114919;27;20034;-69
2022/01/01 10:05:05;;;;;;;32.87;13.77;;;;;;;22.10;44.08;102287.91;5133608;27;20072;-69
2022/01/01 10:07:30;;;;;;;36.67;15.60;;;;;;;21.15;47.17;102304.31;5071315;27;20035;-69
2022/01/01 10:09:56;;;;;;;31.92;14.65;;;;;;;21.54;45.43;102305.75;5114990;27;20025;-69
2022/01/01 10:12:38;;;;;;;35.88;14.48;;;;;;;23.15;41.76;102290.22;5133333;27;20487;-69
2022/01/01 10:15:07;;;;;;;33.22;15.18;;;;;;;22.27;44.39;102289.97;5113950;27;20042;-69
2022/01/01 10:17:34;;;;;;;40.37;15.93;;;;;;;21.89;45.13;102285.09;5120185;27;20019;-69
2022/01/01 10:19:59;;;;;;;31.50;16.10;;;;;;;21.42;46.81;102296.38;5113986;27;20396;-69
2022/01/01 10:22:25;;;;;;;34.15;14.80;;;;;;;22.23;44.57;102288.34;5126484;27;20076;-69
2022/01/01 10:27:59;;;;;;;35.80;14.67;;;;;;;22.34;43.65;102291.53;5124451;27;20047;-69
2022/01/01 10:30:24;;;;;;;34.47;16.40;;;;;;;23.01;42.29;102292.53;5113811;27;20020;-70
2022/01/01 10:33:19;;;;;;;33.50;14.43;;;;;;;22.39;43.27;102294.00;5114334;27;20035;-70
2022/01/01 10:35:49;;;;;;;33.27;14.10;;;;;;;23.59;41.67;102299.13;5104319;27;20034;-69
2022/01/01 10:38:17;;;;;;;33.43;15.23;;;;;;;22.56;43.44;102291.59;5126628;27;20046;-69
2022/01/01 10:40:44;;;;;;;28.58;14.00;;;;;;;22.83;42.61;102295.00;5108001;27;20485;-70
2022/01/01 10:43:10;;;;;;;32.97;15.45;;;;;;;23.95;39.89;102290.53;5133225;27;20439;-69
2022/01/01 10:45:41;;;;;;;32.45;13.75;;;;;;;23.20;42.85;102293.59;5110417;27;20062;-70
2022/01/01 10:48:26;;;;;;;33.67;14.00;;;;;;;22.79;43.34;102288.06;5107423;27;20089;-70
2022/01/01 10:50:53;;;;;;;32.13;14.68;;;;;;;22.11;44.49;102284.34;5120563;27;20080;-70
2022/01/01 10:53:24;;;;;;;33.67;14.13;;;;;;;23.36;41.63;102269.81;5094777;28;20034;-70
2022/01/01 10:55:58;;;;;;;28.70;14.02;;;;;;;23.10;42.74;102275.31;5093363;28;20019;-70
2022/01/01 10:58:29;;;;;;;32.28;13.88;;;;;;;23.04;42.86;102271.97;5102336;27;20027;-69
2022/01/01 11:01:00;;;;;;;28.27;13.73;;;;;;;23.68;41.88;102280.06;5121155;27;20027;-69
2022/01/01 11:03:26;;;;;;;30.38;13.68;;;;;;;23.41;41.97;102282.09;5109902;27;20023;-70
2022/01/01 11:06:10;;;;;;;28.48;13.52;;;;;;;23.52;42.05;102277.16;5113529;27;20129;-70
2022/01/01 11:08:40;;;;;;;30.20;12.90;;;;;;;23.27;42.77;102256.84;5113274;27;20027;-70
2022/01/01 11:11:10;;;;;;;27.83;13.50;;;;;;;22.96;42.73;102273.22;5130314;27;20038;-70
2022/01/01 11:13:36;;;;;;;27.75;14.18;;;;;;;23.86;41.42;102273.94;5131261;27;20397;-70